Fowler, Colorado
Current Conditions -  °F | °C
As of 4:53 PM on Thursday 27 Nov 2014 (Local Time) from KLHX Reporting Station
Clear Clear  
Wind Chill: 61°   Ceiling: Unl
Heat Index: 61°   Visibility: 10mi
Dew Point: 22°   Wind: 3mph
Humidity: 22%   Direction: 180°S
Pressure: 30.1"   Gusts: NA
Location:  38.13°N, 104.02°W
Report Text: KLHX 272353Z AUTO 18003KT 10SM CLR 16/M06 A3010 RMK AO2 SLP186 T01611056 10206 20083 58009
Loading
Personal Weather Stations






























Interactive Weather Map New forecast layout! Learn more

10-Day Weather Forecast

Advertisements
Track Severe Weather on mobile